createdAt,value
2018-12-08T00:00:36.348Z,996.49
2018-12-08T00:01:36.327Z,996.56
2018-12-08T00:02:36.305Z,996.55
2018-12-08T00:03:36.290Z,996.48
2018-12-08T00:04:36.262Z,996.52
2018-12-08T00:05:36.241Z,996.49
2018-12-08T00:06:36.220Z,996.62
2018-12-08T00:07:36.203Z,996.55
2018-12-08T00:08:36.180Z,996.62
2018-12-08T00:09:36.158Z,996.59
2018-12-08T00:10:36.139Z,996.63
2018-12-08T00:11:36.116Z,996.57
2018-12-08T00:12:36.095Z,996.49
2018-12-08T00:13:36.077Z,996.54
2018-12-08T00:14:36.062Z,996.45
2018-12-08T00:15:36.034Z,996.53
2018-12-08T00:16:36.017Z,996.55
2018-12-08T00:17:35.992Z,996.60
2018-12-08T00:18:35.982Z,996.51
2018-12-08T00:19:35.954Z,996.64
2018-12-08T00:20:35.931Z,996.63
2018-12-08T00:21:35.917Z,996.52
2018-12-08T00:22:35.890Z,996.65
2018-12-08T00:23:35.874Z,996.73
2018-12-08T00:24:35.848Z,996.62
2018-12-08T00:25:35.829Z,996.66
2018-12-08T00:26:35.814Z,996.65
2018-12-08T00:27:35.790Z,996.67
2018-12-08T00:28:35.762Z,996.80
2018-12-08T00:29:35.743Z,996.74
2018-12-08T00:30:35.724Z,996.77
2018-12-08T00:31:35.701Z,996.63
2018-12-08T00:32:35.684Z,996.70
2018-12-08T00:33:35.657Z,996.68
2018-12-08T00:34:35.641Z,996.67
2018-12-08T00:35:35.618Z,996.62
2018-12-08T00:36:35.593Z,996.75
2018-12-08T00:37:35.573Z,996.74
2018-12-08T00:38:35.560Z,996.83
2018-12-08T00:39:35.532Z,996.71
2018-12-08T00:40:35.508Z,996.74
2018-12-08T00:41:35.489Z,996.68
2018-12-08T00:42:35.487Z,996.63
2018-12-08T00:43:35.449Z,996.64
2018-12-08T00:44:35.427Z,996.74
2018-12-08T00:45:35.408Z,996.69
2018-12-08T00:46:35.389Z,996.73
2018-12-08T00:47:35.365Z,996.74
2018-12-08T00:48:35.346Z,996.76
2018-12-08T00:49:35.321Z,996.65
2018-12-08T00:50:35.301Z,996.73
2018-12-08T00:51:35.282Z,996.69
2018-12-08T00:52:35.259Z,996.77
2018-12-08T00:53:35.239Z,996.76
2018-12-08T00:54:35.215Z,996.69
2018-12-08T00:55:35.195Z,996.71
2018-12-08T00:56:35.173Z,996.66
2018-12-08T00:57:35.154Z,996.76
2018-12-08T00:58:35.141Z,996.70
2018-12-08T00:59:35.117Z,996.72
2018-12-08T01:00:35.096Z,996.70
2018-12-08T01:01:35.075Z,996.65
2018-12-08T01:02:35.051Z,996.64
2018-12-08T01:03:35.027Z,996.66
2018-12-08T01:04:35.012Z,996.57
2018-12-08T01:05:34.988Z,996.70
2018-12-08T01:06:34.972Z,996.61
2018-12-08T01:07:34.944Z,996.68
2018-12-08T01:08:34.932Z,996.70
2018-12-08T01:09:34.902Z,996.54
2018-12-08T01:10:34.881Z,996.58
2018-12-08T01:11:34.859Z,996.55
2018-12-08T01:12:34.846Z,996.59
2018-12-08T01:13:34.818Z,996.65
2018-12-08T01:14:34.806Z,996.70
2018-12-08T01:15:34.783Z,996.67
2018-12-08T01:16:34.752Z,996.67
2018-12-08T01:17:34.732Z,996.68
2018-12-08T01:18:34.713Z,996.64
2018-12-08T01:19:34.692Z,996.74
2018-12-08T01:20:34.668Z,996.66
2018-12-08T01:21:34.648Z,996.69
2018-12-08T01:22:34.628Z,996.59
2018-12-08T01:23:34.647Z,996.57
2018-12-08T01:24:34.592Z,996.62
2018-12-08T01:25:34.563Z,996.49
2018-12-08T01:26:34.550Z,996.47
2018-12-08T01:27:34.530Z,996.49
2018-12-08T01:28:34.502Z,996.48
2018-12-08T01:29:34.479Z,996.61
2018-12-08T01:30:34.462Z,996.56
2018-12-08T01:31:34.438Z,996.62
2018-12-08T01:32:34.416Z,996.60
2018-12-08T01:33:34.397Z,996.66
2018-12-08T01:34:34.373Z,996.57
2018-12-08T01:35:34.363Z,996.67
2018-12-08T01:36:34.336Z,996.75
2018-12-08T01:37:34.312Z,996.73
2018-12-08T01:38:34.290Z,996.73
2018-12-08T01:39:34.273Z,996.79
2018-12-08T01:40:34.250Z,996.80
2018-12-08T01:41:36.025Z,996.78
2018-12-08T01:42:34.207Z,996.72
2018-12-08T01:43:34.197Z,996.79
2018-12-08T01:44:34.167Z,996.81
2018-12-08T01:45:34.142Z,996.80
2018-12-08T01:46:34.122Z,996.76
2018-12-08T01:47:34.101Z,996.63
2018-12-08T01:48:34.080Z,996.71
2018-12-08T01:49:34.156Z,996.77
2018-12-08T01:50:34.036Z,996.73
2018-12-08T01:51:34.017Z,996.72
2018-12-08T01:52:33.995Z,996.75
2018-12-08T01:53:33.973Z,996.79
2018-12-08T01:54:33.961Z,996.80
2018-12-08T01:55:33.930Z,996.89
2018-12-08T01:56:33.907Z,996.88
2018-12-08T01:57:33.890Z,996.86
2018-12-08T01:58:33.867Z,996.90
2018-12-08T01:59:33.847Z,996.83
2018-12-08T02:00:33.824Z,996.83
2018-12-08T02:01:33.802Z,996.86
2018-12-08T02:02:33.781Z,996.84
2018-12-08T02:03:33.764Z,996.82
2018-12-08T02:04:33.743Z,996.85
2018-12-08T02:05:33.721Z,996.88
2018-12-08T02:06:33.697Z,996.80
2018-12-08T02:07:33.674Z,996.95
2018-12-08T02:08:33.654Z,996.91
2018-12-08T02:09:33.641Z,996.87
2018-12-08T02:10:33.616Z,996.81
2018-12-08T02:11:33.593Z,996.94
2018-12-08T02:12:33.569Z,996.84
2018-12-08T02:13:33.549Z,996.99
2018-12-08T02:14:33.528Z,996.96
2018-12-08T02:15:33.509Z,996.95
2018-12-08T02:16:33.490Z,996.86
2018-12-08T02:17:33.463Z,996.87
2018-12-08T02:18:33.447Z,996.91
2018-12-08T02:19:33.439Z,996.90
2018-12-08T02:20:33.400Z,996.98
2018-12-08T02:21:33.381Z,997.05
2018-12-08T02:22:33.359Z,996.97
2018-12-08T02:23:33.339Z,997.08
2018-12-08T02:24:33.314Z,996.96
2018-12-08T02:25:33.294Z,996.98
2018-12-08T02:26:33.272Z,996.94
2018-12-08T02:27:33.259Z,996.90
2018-12-08T02:28:33.227Z,997.05
2018-12-08T02:29:33.208Z,996.81
2018-12-08T02:30:33.198Z,996.78
2018-12-08T02:31:33.162Z,996.67
2018-12-08T02:32:33.145Z,996.69
2018-12-08T02:33:33.123Z,996.58
2018-12-08T02:34:33.104Z,996.56
2018-12-08T02:35:33.081Z,996.50
2018-12-08T02:36:33.065Z,996.69
2018-12-08T02:37:33.036Z,996.61
2018-12-08T02:38:33.029Z,996.54
2018-12-08T02:39:33.013Z,996.57
2018-12-08T02:40:32.973Z,996.60
2018-12-08T02:41:32.951Z,996.57
2018-12-08T02:42:32.930Z,996.59
2018-12-08T02:43:32.910Z,996.51
2018-12-08T02:44:32.886Z,996.46
2018-12-08T02:45:32.869Z,996.43
2018-12-08T02:46:32.861Z,996.46
2018-12-08T02:47:32.824Z,996.48
2018-12-08T02:48:32.800Z,996.37
2018-12-08T02:49:32.780Z,996.37
2018-12-08T02:50:32.758Z,996.39
2018-12-08T02:51:32.742Z,996.39
2018-12-08T02:52:32.724Z,996.52
2018-12-08T02:53:32.694Z,996.48
2018-12-08T02:54:32.683Z,996.44
2018-12-08T02:55:32.650Z,996.50
2018-12-08T02:56:32.635Z,996.47
2018-12-08T02:57:32.609Z,996.41
2018-12-08T02:58:32.586Z,996.46
2018-12-08T02:59:32.571Z,996.47
2018-12-08T03:00:32.544Z,996.47
2018-12-08T03:01:32.523Z,996.42
2018-12-08T03:02:32.502Z,996.38
2018-12-08T03:03:32.482Z,996.36
2018-12-08T03:04:32.459Z,996.39
2018-12-08T03:05:32.438Z,996.37
2018-12-08T03:06:32.424Z,996.37
2018-12-08T03:07:32.397Z,996.41
2018-12-08T03:08:32.374Z,996.35
2018-12-08T03:09:32.353Z,996.38
2018-12-08T03:10:32.333Z,996.32
2018-12-08T03:11:32.309Z,996.27
2018-12-08T03:12:32.286Z,996.28
2018-12-08T03:13:32.267Z,996.29
2018-12-08T03:14:32.250Z,996.12
2018-12-08T03:15:32.231Z,996.14
2018-12-08T03:16:32.203Z,996.24
2018-12-08T03:17:32.185Z,996.16
2018-12-08T03:18:32.161Z,996.09
2018-12-08T03:19:32.142Z,996.17
2018-12-08T03:20:32.115Z,996.09
2018-12-08T03:21:32.100Z,996.08
2018-12-08T03:22:32.076Z,996.13
2018-12-08T03:23:32.057Z,996.18
2018-12-08T03:24:32.034Z,996.14
2018-12-08T03:25:32.008Z,996.08
2018-12-08T03:26:31.995Z,996.10
2018-12-08T03:27:31.968Z,996.07
2018-12-08T03:28:31.944Z,996.14
2018-12-08T03:29:31.924Z,996.12
2018-12-08T03:30:31.910Z,996.16
2018-12-08T03:31:32.070Z,996.10
2018-12-08T03:32:31.865Z,996.12
2018-12-08T03:33:31.841Z,996.07
2018-12-08T03:34:31.823Z,996.06
2018-12-08T03:35:31.981Z,996.06
2018-12-08T03:36:31.776Z,995.97
2018-12-08T03:37:31.756Z,996.01
2018-12-08T03:38:31.740Z,995.98
2018-12-08T03:39:31.718Z,995.91
2018-12-08T03:40:31.690Z,995.94
2018-12-08T03:41:31.669Z,996.03
2018-12-08T03:42:31.647Z,995.92
2018-12-08T03:43:31.630Z,995.96
2018-12-08T03:44:31.606Z,995.87
2018-12-08T03:45:31.586Z,995.94
2018-12-08T03:46:31.568Z,995.95
2018-12-08T03:47:31.544Z,995.92
2018-12-08T03:48:31.524Z,995.83
2018-12-08T03:49:31.500Z,995.90
2018-12-08T03:50:31.479Z,996.01
2018-12-08T03:51:31.456Z,995.95
2018-12-08T03:52:31.450Z,995.90
2018-12-08T03:53:31.413Z,996.02
2018-12-08T03:54:31.392Z,995.93
2018-12-08T03:55:31.373Z,995.91
2018-12-08T03:56:31.356Z,995.93
2018-12-08T03:57:31.328Z,995.87
2018-12-08T03:58:31.312Z,995.88
2018-12-08T03:59:31.288Z,996.01
2018-12-08T04:00:31.267Z,995.74
2018-12-08T04:01:31.246Z,995.81
2018-12-08T04:02:31.226Z,995.70
2018-12-08T04:03:31.207Z,995.80
2018-12-08T04:04:31.183Z,995.73
2018-12-08T04:05:31.162Z,995.71
2018-12-08T04:06:31.140Z,995.76
2018-12-08T04:07:31.120Z,995.74
2018-12-08T04:08:31.101Z,996.03
2018-12-08T04:09:31.076Z,995.62
2018-12-08T04:10:31.064Z,995.71
2018-12-08T04:11:31.045Z,995.72
2018-12-08T04:12:31.015Z,995.76
2018-12-08T04:13:30.994Z,995.62
2018-12-08T04:14:30.973Z,995.70
2018-12-08T04:15:30.953Z,995.64
2018-12-08T04:16:30.930Z,995.69
2018-12-08T04:17:30.908Z,995.61
2018-12-08T04:18:30.893Z,995.70
2018-12-08T04:19:30.866Z,995.66
2018-12-08T04:20:30.851Z,995.90
2018-12-08T04:21:30.820Z,995.75
2018-12-08T04:22:30.819Z,995.64
2018-12-08T04:23:30.783Z,995.60
2018-12-08T04:24:30.758Z,995.69
2018-12-08T04:25:30.738Z,995.57
2018-12-08T04:26:30.715Z,995.63
2018-12-08T04:27:30.694Z,995.60
2018-12-08T04:28:30.673Z,995.62
2018-12-08T04:29:30.652Z,995.57
2018-12-08T04:30:30.633Z,995.57
2018-12-08T04:31:30.616Z,995.54
2018-12-08T04:32:30.591Z,995.57
2018-12-08T04:33:30.569Z,995.52
2018-12-08T04:34:30.547Z,995.57
2018-12-08T04:35:30.528Z,995.60
2018-12-08T04:36:30.504Z,995.57
2018-12-08T04:37:30.485Z,995.51
2018-12-08T04:38:30.463Z,995.55
2018-12-08T04:39:30.442Z,995.71
2018-12-08T04:40:30.418Z,995.57
2018-12-08T04:41:30.399Z,995.57
2018-12-08T04:42:30.379Z,995.67
2018-12-08T04:43:30.357Z,995.60
2018-12-08T04:44:30.335Z,995.51
2018-12-08T04:45:30.314Z,995.61
2018-12-08T04:46:30.292Z,995.58
2018-12-08T04:47:30.271Z,995.55
2018-12-08T04:48:30.253Z,995.60
2018-12-08T04:49:30.229Z,995.55
2018-12-08T04:50:30.210Z,995.61
2018-12-08T04:51:30.189Z,995.59
2018-12-08T04:52:30.167Z,995.59
2018-12-08T04:53:30.145Z,995.55
2018-12-08T04:54:30.124Z,995.52
2018-12-08T04:55:30.104Z,995.55
2018-12-08T04:56:30.086Z,995.51
2018-12-08T04:57:30.066Z,995.55
2018-12-08T04:58:30.070Z,995.43
2018-12-08T04:59:30.020Z,995.55
2018-12-08T05:00:30.000Z,995.55
2018-12-08T05:01:29.981Z,995.60
2018-12-08T05:02:29.958Z,995.39
2018-12-08T05:03:29.936Z,995.50
2018-12-08T05:04:29.917Z,995.44
2018-12-08T05:05:29.897Z,995.46
2018-12-08T05:06:29.880Z,995.41
2018-12-08T05:07:29.854Z,995.37
2018-12-08T05:08:29.837Z,995.55
2018-12-08T05:09:29.811Z,995.57
2018-12-08T05:10:29.794Z,995.46
2018-12-08T05:11:29.770Z,995.43
2018-12-08T05:12:29.749Z,995.42
2018-12-08T05:13:29.727Z,995.35
2018-12-08T05:14:29.706Z,995.27
2018-12-08T05:15:29.684Z,995.26
2018-12-08T05:16:29.664Z,995.28
2018-12-08T05:17:29.642Z,995.34
2018-12-08T05:18:29.628Z,995.21
2018-12-08T05:19:29.601Z,995.27
2018-12-08T05:20:29.579Z,995.23
2018-12-08T05:21:29.566Z,995.34
2018-12-08T05:22:29.539Z,995.33
2018-12-08T05:23:29.520Z,995.24
2018-12-08T05:24:29.496Z,995.39
2018-12-08T05:25:29.475Z,995.28
2018-12-08T05:26:29.455Z,995.32
2018-12-08T05:27:29.435Z,995.17
2018-12-08T05:28:29.416Z,995.24
2018-12-08T05:29:29.395Z,995.27
2018-12-08T05:30:29.371Z,995.10
2018-12-08T05:31:29.349Z,995.31
2018-12-08T05:32:29.331Z,995.34
2018-12-08T05:33:29.310Z,995.26
2018-12-08T05:34:29.292Z,995.25
2018-12-08T05:35:29.264Z,995.39
2018-12-08T05:36:29.248Z,995.22
2018-12-08T05:37:29.228Z,995.19
2018-12-08T05:38:29.203Z,995.19
2018-12-08T05:39:29.181Z,995.17
2018-12-08T05:40:29.163Z,995.23
2018-12-08T05:41:29.143Z,995.34
2018-12-08T05:42:29.117Z,995.18
2018-12-08T05:43:29.097Z,995.16
2018-12-08T05:44:29.078Z,995.16
2018-12-08T05:45:29.055Z,995.19
2018-12-08T05:46:29.035Z,995.10
2018-12-08T05:47:29.014Z,995.31
2018-12-08T05:48:28.992Z,995.24
2018-12-08T05:49:28.971Z,995.14
2018-12-08T05:50:28.950Z,995.12
2018-12-08T05:51:28.932Z,995.08
2018-12-08T05:52:28.912Z,995.18
2018-12-08T05:53:28.890Z,995.05
2018-12-08T05:54:28.866Z,995.19
2018-12-08T05:55:28.850Z,995.10
2018-12-08T05:56:28.826Z,995.05
2018-12-08T05:57:28.805Z,995.19
2018-12-08T05:58:28.784Z,995.05
2018-12-08T05:59:28.763Z,995.07
2018-12-08T06:00:28.741Z,995.07
2018-12-08T06:01:28.723Z,995.03
2018-12-08T06:02:28.702Z,994.98
2018-12-08T06:03:28.681Z,995.03
2018-12-08T06:04:28.664Z,995.06
2018-12-08T06:05:28.638Z,995.09
2018-12-08T06:06:30.970Z,995.14
2018-12-08T06:07:28.592Z,995.16
2018-12-08T06:08:28.573Z,995.06
2018-12-08T06:09:28.554Z,995.01
2018-12-08T06:10:28.532Z,995.09
2018-12-08T06:11:28.513Z,995.18
2018-12-08T06:12:28.496Z,995.06
2018-12-08T06:13:28.471Z,995.05
2018-12-08T06:14:28.445Z,995.08
2018-12-08T06:15:28.429Z,995.04
2018-12-08T06:16:28.406Z,994.91
2018-12-08T06:17:28.383Z,994.98
2018-12-08T06:18:28.474Z,994.92
2018-12-08T06:19:28.342Z,995.00
2018-12-08T06:20:28.319Z,995.03
2018-12-08T06:21:28.299Z,995.08
2018-12-08T06:22:28.279Z,995.07
2018-12-08T06:23:28.258Z,994.98
2018-12-08T06:24:28.235Z,995.16
2018-12-08T06:25:28.216Z,994.99
2018-12-08T06:26:28.203Z,995.03
2018-12-08T06:27:28.172Z,995.04
2018-12-08T06:28:28.157Z,995.05
2018-12-08T06:29:28.137Z,995.04
2018-12-08T06:30:28.109Z,995.11
2018-12-08T06:31:28.196Z,995.09
2018-12-08T06:32:28.069Z,995.08
2018-12-08T06:33:28.049Z,995.05
2018-12-08T06:34:28.033Z,995.15
2018-12-08T06:35:28.007Z,995.02
2018-12-08T06:36:27.986Z,995.09
2018-12-08T06:37:27.963Z,995.02
2018-12-08T06:38:27.941Z,995.01
2018-12-08T06:39:27.921Z,994.97
2018-12-08T06:40:29.357Z,995.01
2018-12-08T06:41:27.876Z,994.93
2018-12-08T06:42:27.864Z,994.95
2018-12-08T06:43:27.836Z,994.91
2018-12-08T06:44:27.866Z,994.93
2018-12-08T06:45:27.795Z,994.91
2018-12-08T06:46:27.775Z,994.95
2018-12-08T06:47:27.760Z,994.97
2018-12-08T06:48:27.735Z,994.93
2018-12-08T06:49:27.712Z,994.88
2018-12-08T06:50:27.690Z,994.95
2018-12-08T06:51:27.667Z,994.90
2018-12-08T06:52:27.656Z,994.82
2018-12-08T06:53:27.632Z,994.65
2018-12-08T06:54:27.608Z,994.69
2018-12-08T06:55:27.586Z,994.66
2018-12-08T06:56:27.565Z,994.65
2018-12-08T06:57:27.549Z,994.63
2018-12-08T06:58:27.526Z,994.65
2018-12-08T06:59:27.503Z,994.65
2018-12-08T07:00:27.480Z,994.63
2018-12-08T07:01:27.462Z,994.59
2018-12-08T07:02:27.442Z,994.70
2018-12-08T07:03:27.422Z,994.68
2018-12-08T07:04:27.397Z,994.68
2018-12-08T07:05:27.376Z,994.65
2018-12-08T07:06:27.357Z,994.64
2018-12-08T07:07:27.337Z,994.62
2018-12-08T07:08:27.333Z,994.56
2018-12-08T07:09:27.292Z,994.60
2018-12-08T07:10:27.273Z,994.57
2018-12-08T07:11:27.260Z,994.60
2018-12-08T07:12:28.261Z,994.65
2018-12-08T07:13:27.207Z,994.63
2018-12-08T07:14:27.195Z,994.57
2018-12-08T07:15:27.168Z,994.68
2018-12-08T07:16:27.147Z,994.62
2018-12-08T07:17:27.126Z,994.56
2018-12-08T07:18:27.104Z,994.68
2018-12-08T07:19:27.082Z,994.55
2018-12-08T07:20:27.068Z,994.50
2018-12-08T07:21:27.044Z,994.62
2018-12-08T07:22:27.024Z,994.60
2018-12-08T07:23:27.001Z,994.54
2018-12-08T07:24:26.981Z,994.65
2018-12-08T07:25:26.963Z,994.74
2018-12-08T07:26:26.938Z,994.58
2018-12-08T07:27:26.923Z,994.52
2018-12-08T07:28:26.905Z,994.47
2018-12-08T07:29:26.888Z,994.49
2018-12-08T07:30:26.863Z,994.56
2018-12-08T07:31:26.836Z,994.51
2018-12-08T07:32:26.810Z,994.63
2018-12-08T07:33:26.793Z,994.56
2018-12-08T07:34:26.772Z,994.60
2018-12-08T07:35:26.746Z,994.63
2018-12-08T07:36:26.735Z,994.60
2018-12-08T07:37:26.708Z,994.56
2018-12-08T07:38:26.686Z,994.45
2018-12-08T07:39:26.665Z,994.65
2018-12-08T07:40:26.644Z,994.53
2018-12-08T07:41:26.625Z,994.59
2018-12-08T07:42:26.711Z,994.49
2018-12-08T07:43:26.585Z,994.56
2018-12-08T07:44:26.564Z,994.39
2018-12-08T07:45:26.540Z,994.38
2018-12-08T07:46:26.519Z,994.56
2018-12-08T07:47:26.496Z,994.47
2018-12-08T07:48:26.477Z,994.50
2018-12-08T07:49:26.462Z,994.49
2018-12-08T07:50:26.438Z,994.49
2018-12-08T07:51:26.420Z,994.51
2018-12-08T07:52:26.396Z,994.44
2018-12-08T07:53:26.373Z,994.48
2018-12-08T07:54:26.354Z,994.50
2018-12-08T07:55:26.334Z,994.46
2018-12-08T07:56:26.310Z,994.38
2018-12-08T07:57:26.289Z,994.35
2018-12-08T07:58:26.268Z,994.42
2018-12-08T07:59:26.249Z,994.37
2018-12-08T08:00:26.246Z,994.43
2018-12-08T08:01:26.207Z,994.45
2018-12-08T08:02:26.186Z,994.48
2018-12-08T08:03:26.166Z,994.39
2018-12-08T08:04:26.143Z,994.55
2018-12-08T08:05:26.127Z,994.74
2018-12-08T08:06:26.101Z,994.49
2018-12-08T08:07:26.082Z,994.41
2018-12-08T08:08:26.059Z,994.53
2018-12-08T08:09:26.044Z,994.46
2018-12-08T08:10:26.017Z,994.42
2018-12-08T08:11:25.992Z,994.42
2018-12-08T08:12:25.981Z,994.61
2018-12-08T08:13:25.961Z,994.45
2018-12-08T08:14:25.930Z,994.47
2018-12-08T08:15:25.909Z,994.56
2018-12-08T08:16:25.886Z,994.43
2018-12-08T08:17:25.867Z,994.32
2018-12-08T08:18:25.850Z,994.38
2018-12-08T08:19:25.835Z,994.54
2018-12-08T08:20:25.805Z,994.27
2018-12-08T08:21:25.799Z,994.28
2018-12-08T08:22:25.761Z,994.44
2018-12-08T08:23:25.743Z,994.42
2018-12-08T08:24:25.721Z,994.41
2018-12-08T08:25:25.700Z,994.27
2018-12-08T08:26:25.677Z,994.29
2018-12-08T08:27:25.659Z,994.30
2018-12-08T08:28:25.634Z,994.26
2018-12-08T08:29:25.619Z,994.27
2018-12-08T08:30:25.593Z,994.29
2018-12-08T08:31:25.569Z,994.28
2018-12-08T08:32:25.557Z,994.34
2018-12-08T08:33:25.530Z,994.34
2018-12-08T08:34:25.510Z,994.26
2018-12-08T08:35:25.488Z,994.38
2018-12-08T08:36:25.470Z,994.21
2018-12-08T08:37:25.453Z,994.27
2018-12-08T08:38:25.425Z,994.15
2018-12-08T08:39:25.403Z,994.23
2018-12-08T08:40:25.402Z,994.21
2018-12-08T08:41:25.369Z,994.22
2018-12-08T08:42:25.341Z,994.32
2018-12-08T08:43:25.329Z,994.20
2018-12-08T08:44:25.323Z,994.16
2018-12-08T08:45:25.278Z,994.12
2018-12-08T08:46:25.273Z,994.18
2018-12-08T08:47:25.240Z,994.09
2018-12-08T08:48:25.215Z,994.06
2018-12-08T08:49:25.196Z,994.14
2018-12-08T08:50:25.173Z,994.07
2018-12-08T08:51:25.151Z,994.26
2018-12-08T08:52:25.133Z,994.17
2018-12-08T08:53:25.111Z,994.13
2018-12-08T08:54:25.097Z,994.21
2018-12-08T08:55:26.280Z,994.20
2018-12-08T08:56:25.051Z,994.04
2018-12-08T08:57:25.029Z,994.14
2018-12-08T08:58:25.018Z,994.22
2018-12-08T08:59:25.008Z,994.18
2018-12-08T09:00:24.962Z,994.07
2018-12-08T09:01:24.953Z,993.95
2018-12-08T09:02:24.936Z,994.08
2018-12-08T09:03:24.902Z,994.16
2018-12-08T09:04:24.882Z,994.20
2018-12-08T09:05:24.860Z,994.17
2018-12-08T09:06:24.847Z,994.16
2018-12-08T09:07:24.822Z,994.10
2018-12-08T09:08:24.797Z,994.08
2018-12-08T09:09:24.777Z,994.14
2018-12-08T09:10:24.827Z,994.12
2018-12-08T09:11:24.735Z,994.10
2018-12-08T09:12:24.716Z,994.02
2018-12-08T09:13:24.701Z,994.03
2018-12-08T09:14:24.676Z,993.99
2018-12-08T09:15:24.659Z,993.86
2018-12-08T09:16:24.639Z,993.96
2018-12-08T09:17:24.615Z,993.83
2018-12-08T09:18:24.592Z,993.81
2018-12-08T09:19:24.571Z,993.89
2018-12-08T09:20:24.555Z,993.94
2018-12-08T09:21:24.530Z,993.92
2018-12-08T09:22:24.550Z,993.82
2018-12-08T09:23:24.490Z,993.74
2018-12-08T09:24:24.471Z,993.76
2018-12-08T09:25:24.445Z,993.73
2018-12-08T09:26:24.425Z,993.76
2018-12-08T09:27:24.405Z,993.61
2018-12-08T09:28:24.509Z,993.71
2018-12-08T09:29:24.362Z,993.77
2018-12-08T09:30:24.354Z,993.72
2018-12-08T09:31:24.329Z,993.79
2018-12-08T09:32:24.409Z,993.75
2018-12-08T09:33:24.286Z,993.79
2018-12-08T09:34:24.259Z,993.81
2018-12-08T09:35:24.237Z,993.73
2018-12-08T09:36:24.215Z,993.96
2018-12-08T09:37:24.195Z,993.80
2018-12-08T09:38:24.195Z,993.77
2018-12-08T09:39:24.156Z,993.88
2018-12-08T09:40:24.145Z,993.85
2018-12-08T09:41:24.117Z,993.92
2018-12-08T09:42:24.092Z,993.95
2018-12-08T09:43:24.072Z,993.79
2018-12-08T09:44:24.056Z,993.86
2018-12-08T09:45:24.034Z,993.62
2018-12-08T09:46:24.022Z,993.87
2018-12-08T09:47:23.989Z,993.77
2018-12-08T09:48:23.966Z,993.93
2018-12-08T09:49:23.948Z,993.83
2018-12-08T09:50:23.928Z,993.79
2018-12-08T09:51:23.906Z,993.69
2018-12-08T09:52:23.889Z,993.69
2018-12-08T09:53:23.866Z,993.72
2018-12-08T09:54:23.846Z,993.97
2018-12-08T09:55:23.823Z,993.78
2018-12-08T09:56:23.801Z,993.94
2018-12-08T09:57:23.798Z,994.01
2018-12-08T09:58:23.761Z,993.84
2018-12-08T09:59:23.739Z,993.84
2018-12-08T10:00:23.720Z,993.76
2018-12-08T10:01:23.701Z,993.93
2018-12-08T10:02:23.673Z,994.24
2018-12-08T10:03:23.658Z,993.82
2018-12-08T10:04:23.641Z,993.83
2018-12-08T10:05:23.611Z,993.88
2018-12-08T10:06:23.592Z,993.75
2018-12-08T10:07:23.570Z,993.75
2018-12-08T10:08:23.548Z,993.69
2018-12-08T10:09:23.540Z,993.89
2018-12-08T10:10:23.506Z,993.86
2018-12-08T10:11:23.488Z,993.81
2018-12-08T10:12:23.474Z,993.82
2018-12-08T10:13:23.447Z,993.77
2018-12-08T10:14:23.426Z,993.75
2018-12-08T10:15:23.406Z,993.67
2018-12-08T10:16:23.381Z,993.59
2018-12-08T10:17:23.372Z,993.76
2018-12-08T10:18:23.346Z,993.71
2018-12-08T10:19:23.321Z,993.65
2018-12-08T10:20:23.304Z,993.75
2018-12-08T10:21:23.280Z,993.73
2018-12-08T10:22:23.260Z,993.76
2018-12-08T10:23:23.239Z,993.68
2018-12-08T10:24:23.217Z,993.75
2018-12-08T10:25:23.195Z,993.74
2018-12-08T10:26:23.184Z,993.72
2018-12-08T10:27:23.153Z,993.64
2018-12-08T10:28:23.135Z,993.75
2018-12-08T10:29:23.117Z,993.70
2018-12-08T10:30:23.093Z,993.80
2018-12-08T10:31:23.075Z,993.75
2018-12-08T10:32:23.057Z,993.74
2018-12-08T10:33:23.030Z,993.70
2018-12-08T10:34:23.010Z,993.76
2018-12-08T10:35:22.990Z,993.72
2018-12-08T10:36:22.971Z,993.74
2018-12-08T10:37:22.962Z,993.79
2018-12-08T10:38:22.929Z,993.69
2018-12-08T10:39:22.915Z,993.74
2018-12-08T10:40:22.890Z,993.70
2018-12-08T10:41:22.864Z,993.66
2018-12-08T10:42:22.844Z,993.72
2018-12-08T10:43:22.826Z,993.65
2018-12-08T10:44:22.817Z,993.76
2018-12-08T10:45:22.789Z,993.66
2018-12-08T10:46:22.769Z,993.71
2018-12-08T10:47:22.757Z,993.69
2018-12-08T10:48:22.732Z,993.76
2018-12-08T10:49:22.705Z,993.64
2018-12-08T10:50:22.686Z,993.73
2018-12-08T10:51:22.671Z,993.76
2018-12-08T10:52:22.639Z,993.78
2018-12-08T10:53:22.619Z,993.87
2018-12-08T10:54:24.611Z,993.79
2018-12-08T10:55:22.575Z,993.74
2018-12-08T10:56:22.555Z,993.73
2018-12-08T10:57:22.538Z,993.70
2018-12-08T10:58:22.516Z,993.74
2018-12-08T10:59:22.496Z,993.68
2018-12-08T11:00:22.474Z,993.70
2018-12-08T11:01:22.456Z,993.61
2018-12-08T11:02:22.436Z,993.63
2018-12-08T11:03:22.411Z,993.68
2018-12-08T11:04:22.392Z,993.63
2018-12-08T11:05:22.369Z,993.63
2018-12-08T11:06:22.351Z,993.58
2018-12-08T11:07:22.327Z,993.61
2018-12-08T11:08:22.309Z,993.57
2018-12-08T11:09:22.287Z,993.64
2018-12-08T11:10:22.271Z,993.68
2018-12-08T11:11:22.257Z,993.69
2018-12-08T11:12:22.227Z,993.66
2018-12-08T11:13:22.206Z,993.69
2018-12-08T11:14:22.183Z,993.80
2018-12-08T11:15:22.165Z,993.75
2018-12-08T11:16:22.158Z,993.72
2018-12-08T11:17:22.125Z,993.69
2018-12-08T11:18:22.104Z,993.77
2018-12-08T11:19:22.098Z,993.73
2018-12-08T11:20:22.065Z,993.95
2018-12-08T11:21:22.039Z,993.87
2018-12-08T11:22:22.026Z,993.88
2018-12-08T11:23:22.004Z,993.78
2018-12-08T11:24:21.979Z,993.77
2018-12-08T11:25:21.962Z,993.89
2018-12-08T11:26:21.940Z,993.78
2018-12-08T11:27:21.919Z,993.77
2018-12-08T11:28:21.904Z,993.72
2018-12-08T11:29:21.935Z,993.77
2018-12-08T11:30:21.859Z,993.85
2018-12-08T11:31:21.847Z,993.82
2018-12-08T11:32:21.817Z,993.77
2018-12-08T11:33:21.796Z,993.98
2018-12-08T11:34:21.774Z,993.92
2018-12-08T11:35:21.761Z,993.69
2018-12-08T11:36:21.738Z,993.79
2018-12-08T11:37:21.714Z,993.84
2018-12-08T11:38:21.700Z,993.80
2018-12-08T11:39:21.677Z,993.81
2018-12-08T11:40:21.664Z,993.88
2018-12-08T11:41:21.637Z,993.75
2018-12-08T11:42:21.617Z,993.85
2018-12-08T11:43:23.475Z,993.81
2018-12-08T11:44:21.586Z,993.71
2018-12-08T11:45:21.563Z,993.84
2018-12-08T11:46:21.542Z,993.91
2018-12-08T11:47:21.516Z,993.95
2018-12-08T11:48:21.507Z,993.93
2018-12-08T11:49:21.486Z,993.94
2018-12-08T11:50:21.462Z,994.00
2018-12-08T11:51:21.440Z,993.90
2018-12-08T11:52:21.426Z,993.92
2018-12-08T11:53:21.396Z,993.88
2018-12-08T11:54:21.402Z,993.89
2018-12-08T11:55:21.362Z,993.87
2018-12-08T11:56:21.347Z,993.77
2018-12-08T11:57:21.335Z,993.82
2018-12-08T11:58:21.313Z,993.76
2018-12-08T11:59:21.290Z,993.90
2018-12-08T12:00:21.265Z,993.85
2018-12-08T12:01:21.252Z,993.82
2018-12-08T12:02:21.226Z,993.91
2018-12-08T12:03:21.208Z,993.83
2018-12-08T12:04:21.177Z,993.83
2018-12-08T12:05:21.157Z,993.79
2018-12-08T12:06:21.139Z,993.73
2018-12-08T12:07:21.118Z,993.88
2018-12-08T12:08:21.101Z,993.82
2018-12-08T12:09:21.081Z,993.76
2018-12-08T12:10:21.058Z,993.89
2018-12-08T12:11:21.049Z,993.84
2018-12-08T12:12:21.022Z,993.86
2018-12-08T12:13:21.084Z,993.90
2018-12-08T12:14:20.992Z,993.87
2018-12-08T12:15:20.990Z,993.83
2018-12-08T12:16:20.944Z,993.79
2018-12-08T12:17:20.930Z,993.84
2018-12-08T12:18:20.908Z,993.87
2018-12-08T12:19:20.901Z,993.77
2018-12-08T12:20:20.870Z,993.77
2018-12-08T12:21:20.857Z,993.78
2018-12-08T12:22:20.834Z,993.92
2018-12-08T12:23:20.812Z,993.91
2018-12-08T12:24:20.799Z,993.71
2018-12-08T12:25:20.772Z,993.83
2018-12-08T12:26:20.754Z,993.75
2018-12-08T12:27:20.737Z,993.73
2018-12-08T12:28:20.723Z,993.73